createdAt,value
2023-06-04T00:00:21.409Z,0.00
2023-06-04T00:00:53.018Z,0.00
2023-06-04T00:01:22.661Z,0.00
2023-06-04T00:01:55.548Z,0.00
2023-06-04T00:02:29.915Z,0.00
2023-06-04T00:02:52.548Z,0.00
2023-06-04T00:03:15.456Z,0.00
2023-06-04T00:03:49.336Z,0.00
2023-06-04T00:04:21.391Z,0.00
2023-06-04T00:04:53.405Z,0.00
2023-06-04T00:05:22.604Z,0.00
2023-06-04T00:05:54.146Z,0.00
2023-06-04T00:06:29.831Z,0.00
2023-06-04T00:06:51.882Z,0.00
2023-06-04T00:07:14.509Z,0.00
2023-06-04T00:07:49.612Z,0.00
2023-06-04T00:08:21.108Z,0.00
2023-06-04T00:08:53.271Z,0.00
2023-06-04T00:09:25.087Z,0.00
2023-06-04T00:09:47.807Z,0.00
2023-06-04T00:10:10.159Z,0.00
2023-06-04T00:10:45.308Z,0.00
2023-06-04T00:11:17.243Z,0.00
2023-06-04T00:11:49.266Z,0.00
2023-06-04T00:12:21.056Z,0.00
2023-06-04T00:12:53.141Z,0.00
2023-06-04T00:13:22.672Z,0.00
2023-06-04T00:13:54.065Z,0.00
2023-06-04T00:14:29.324Z,0.00
2023-06-04T00:14:52.023Z,0.00
2023-06-04T00:15:14.446Z,0.00
2023-06-04T00:15:49.459Z,0.00
2023-06-04T00:16:21.684Z,0.00
2023-06-04T00:16:53.321Z,0.00
2023-06-04T00:17:25.224Z,0.00
2023-06-04T00:17:49.963Z,0.00
2023-06-04T00:18:15.636Z,0.00
2023-06-04T00:18:45.304Z,0.00
2023-06-04T00:19:17.373Z,0.00
2023-06-04T00:19:49.490Z,0.00
2023-06-04T00:20:21.177Z,0.00
2023-06-04T00:20:53.058Z,0.00
2023-06-04T00:21:22.494Z,0.00
2023-06-04T00:21:54.409Z,0.00
2023-06-04T00:22:29.443Z,0.00
2023-06-04T00:22:52.491Z,0.00
2023-06-04T00:23:15.251Z,0.00
2023-06-04T00:23:49.400Z,0.00
2023-06-04T00:24:21.357Z,0.00
2023-06-04T00:24:53.233Z,0.00
2023-06-04T00:25:25.128Z,0.00
2023-06-04T00:25:47.885Z,0.00
2023-06-04T00:26:10.153Z,0.00
2023-06-04T00:26:45.320Z,0.00
2023-06-04T00:27:17.338Z,0.00
2023-06-04T00:27:49.157Z,0.00
2023-06-04T00:28:21.223Z,0.00
2023-06-04T00:28:53.148Z,0.00
2023-06-04T00:29:22.445Z,0.00
2023-06-04T00:29:54.133Z,0.00
2023-06-04T00:30:29.289Z,0.00
2023-06-04T00:30:51.861Z,0.00
2023-06-04T00:31:17.399Z,0.00
2023-06-04T00:31:49.488Z,0.00
2023-06-04T00:32:21.412Z,0.00
2023-06-04T00:32:53.207Z,0.00
2023-06-04T00:33:25.208Z,0.00
2023-06-04T00:33:47.934Z,0.00
2023-06-04T00:34:10.152Z,0.00
2023-06-04T00:34:45.124Z,0.00
2023-06-04T00:35:22.725Z,0.00
2023-06-04T00:35:49.319Z,0.00
2023-06-04T00:36:21.196Z,0.00
2023-06-04T00:36:53.112Z,0.00
2023-06-04T00:37:25.129Z,0.00
2023-06-04T00:37:48.612Z,0.00
2023-06-04T00:38:10.794Z,0.00
2023-06-04T00:38:45.325Z,0.00
2023-06-04T00:39:18.645Z,0.00
2023-06-04T00:39:49.264Z,0.00
2023-06-04T00:40:21.646Z,0.00
2023-06-04T00:40:53.207Z,0.00
2023-06-04T00:41:25.654Z,0.00
2023-06-04T00:41:48.286Z,0.00
2023-06-04T00:42:10.974Z,0.00
2023-06-04T00:42:45.178Z,0.00
2023-06-04T00:43:18.708Z,0.00
2023-06-04T00:43:49.499Z,0.00
2023-06-04T00:44:21.087Z,0.00
2023-06-04T00:44:53.198Z,0.00
2023-06-04T00:45:25.311Z,0.00
2023-06-04T00:45:48.496Z,0.00
2023-06-04T00:46:10.918Z,0.00
2023-06-04T00:46:45.021Z,0.00
2023-06-04T00:47:19.458Z,0.00
2023-06-04T00:47:49.245Z,0.00
2023-06-04T00:48:21.479Z,0.00
2023-06-04T00:48:53.181Z,0.00
2023-06-04T00:49:25.391Z,0.00
2023-06-04T00:49:48.614Z,0.00
2023-06-04T00:50:10.703Z,0.00
2023-06-04T00:50:45.329Z,0.00
2023-06-04T00:51:17.215Z,0.00
2023-06-04T00:51:49.943Z,0.00
2023-06-04T00:52:21.631Z,0.00
2023-06-04T00:52:53.274Z,0.00
2023-06-04T00:53:25.108Z,0.00
2023-06-04T00:53:47.994Z,0.00
2023-06-04T00:54:10.421Z,0.00
2023-06-04T00:54:45.501Z,0.00
2023-06-04T00:55:17.114Z,0.00
2023-06-04T00:55:49.161Z,0.00
2023-06-04T00:56:21.228Z,0.00
2023-06-04T00:56:53.323Z,0.00
2023-06-04T00:57:25.102Z,0.00
2023-06-04T00:57:48.508Z,0.00
2023-06-04T00:58:10.702Z,0.00
2023-06-04T00:58:45.340Z,0.00
2023-06-04T00:59:17.012Z,0.00
2023-06-04T00:59:49.423Z,0.00
2023-06-04T01:00:22.476Z,0.00
2023-06-04T01:00:53.131Z,0.00
2023-06-04T01:01:22.815Z,0.00
2023-06-04T01:01:54.369Z,0.00
2023-06-04T01:02:25.393Z,0.00
2023-06-04T01:02:55.008Z,0.00
2023-06-04T01:03:33.042Z,0.00
2023-06-04T01:03:56.053Z,0.00
2023-06-04T01:04:18.491Z,0.00
2023-06-04T01:04:53.333Z,0.00
2023-06-04T01:05:25.577Z,0.00
2023-06-04T01:05:47.843Z,0.00
2023-06-04T01:06:10.449Z,0.00
2023-06-04T01:06:45.613Z,0.00
2023-06-04T01:07:17.466Z,0.00
2023-06-04T01:07:49.573Z,0.00
2023-06-04T01:08:23.024Z,0.00
2023-06-04T01:08:53.144Z,0.00
2023-06-04T01:09:23.266Z,0.00
2023-06-04T01:09:54.085Z,0.00
2023-06-04T01:10:29.239Z,0.00
2023-06-04T01:10:52.370Z,0.00
2023-06-04T01:11:14.474Z,0.00
2023-06-04T01:11:49.199Z,0.00
2023-06-04T01:12:21.151Z,0.00
2023-06-04T01:12:53.252Z,0.00
2023-06-04T01:13:24.168Z,0.00
2023-06-04T01:13:54.115Z,0.00
2023-06-04T01:14:29.161Z,0.00
2023-06-04T01:14:51.806Z,0.00
2023-06-04T01:15:14.190Z,0.00
2023-06-04T01:15:49.436Z,0.00
2023-06-04T01:16:21.267Z,0.00
2023-06-04T01:16:53.386Z,0.00
2023-06-04T01:17:24.715Z,0.00
2023-06-04T01:17:54.424Z,0.00
2023-06-04T01:18:29.260Z,0.00
2023-06-04T01:18:52.709Z,0.00
2023-06-04T01:19:15.005Z,0.00
2023-06-04T01:19:49.404Z,0.00
2023-06-04T01:20:21.057Z,0.00
2023-06-04T01:20:53.024Z,0.00
2023-06-04T01:21:25.405Z,0.00
2023-06-04T01:21:47.807Z,0.00
2023-06-04T01:22:10.224Z,0.00
2023-06-04T01:22:45.116Z,0.00
2023-06-04T01:23:17.142Z,0.00
2023-06-04T01:23:49.396Z,0.00
2023-06-04T01:24:21.650Z,0.00
2023-06-04T01:24:52.998Z,0.00
2023-06-04T01:25:26.079Z,0.00
2023-06-04T01:25:54.510Z,0.00
2023-06-04T01:26:29.149Z,0.00
2023-06-04T01:26:52.866Z,0.00
2023-06-04T01:27:49.875Z,0.00
2023-06-04T01:28:21.256Z,0.00
2023-06-04T01:28:53.136Z,0.00
2023-06-04T01:29:22.515Z,0.00
2023-06-04T01:29:54.308Z,0.00
2023-06-04T01:30:29.677Z,0.00
2023-06-04T01:30:51.813Z,0.00
2023-06-04T01:31:14.448Z,0.00
2023-06-04T01:31:49.358Z,0.00
2023-06-04T01:32:21.679Z,0.00
2023-06-04T01:32:54.243Z,0.00
2023-06-04T01:33:27.852Z,0.00
2023-06-04T01:33:48.379Z,0.00
2023-06-04T01:34:11.337Z,0.00
2023-06-04T01:34:45.098Z,0.00
2023-06-04T01:35:17.132Z,0.00
2023-06-04T01:35:49.035Z,0.00
2023-06-04T01:36:21.648Z,0.00
2023-06-04T01:36:53.306Z,0.00
2023-06-04T01:37:22.560Z,0.00
2023-06-04T01:37:54.077Z,0.00
2023-06-04T01:38:29.182Z,0.00
2023-06-04T01:38:51.855Z,0.00
2023-06-04T01:39:14.120Z,0.00
2023-06-04T01:39:49.098Z,0.00
2023-06-04T01:40:21.464Z,0.00
2023-06-04T01:40:54.284Z,0.00
2023-06-04T01:41:25.166Z,0.00
2023-06-04T01:41:47.891Z,0.00
2023-06-04T01:42:10.305Z,0.00
2023-06-04T01:42:45.211Z,0.00
2023-06-04T01:43:17.266Z,0.00
2023-06-04T01:43:49.166Z,0.00
2023-06-04T01:44:21.721Z,0.00
2023-06-04T01:44:53.228Z,0.00
2023-06-04T01:45:22.876Z,0.00
2023-06-04T01:45:54.641Z,0.00
2023-06-04T01:46:29.886Z,0.00
2023-06-04T01:46:52.268Z,0.00
2023-06-04T01:47:14.573Z,0.00
2023-06-04T01:47:56.523Z,0.00
2023-06-04T01:48:18.840Z,0.00
2023-06-04T01:48:54.483Z,0.00
2023-06-04T01:49:25.428Z,0.00
2023-06-04T01:49:48.277Z,0.00
2023-06-04T01:50:11.211Z,0.00
2023-06-04T01:50:45.069Z,0.00
2023-06-04T01:51:16.993Z,0.00
2023-06-04T01:51:49.124Z,0.00
2023-06-04T01:52:21.290Z,0.00
2023-06-04T01:52:53.074Z,0.00
2023-06-04T01:53:22.462Z,0.00
2023-06-04T01:53:54.123Z,0.00
2023-06-04T01:54:31.490Z,0.00
2023-06-04T01:54:52.115Z,0.00
2023-06-04T01:55:14.753Z,0.00
2023-06-04T01:55:49.371Z,0.00
2023-06-04T01:56:21.151Z,0.00
2023-06-04T01:56:53.248Z,0.00
2023-06-04T01:57:25.201Z,0.00
2023-06-04T01:57:47.897Z,0.00
2023-06-04T01:58:10.201Z,0.00
2023-06-04T01:58:45.229Z,0.00
2023-06-04T01:59:17.276Z,0.00
2023-06-04T01:59:49.346Z,0.00
2023-06-04T02:00:24.600Z,0.00
2023-06-04T02:00:53.513Z,0.00
2023-06-04T02:01:24.265Z,0.00
2023-06-04T02:02:32.839Z,0.00
2023-06-04T02:02:54.421Z,0.00
2023-06-04T02:03:17.520Z,0.00
2023-06-04T02:03:49.872Z,0.00
2023-06-04T02:04:21.515Z,0.00
2023-06-04T02:04:53.560Z,0.00
2023-06-04T02:05:23.348Z,0.00
2023-06-04T02:05:54.177Z,0.00
2023-06-04T02:06:29.654Z,0.00
2023-06-04T02:06:52.334Z,0.00
2023-06-04T02:07:14.921Z,0.00
2023-06-04T02:07:49.609Z,0.00
2023-06-04T02:08:21.306Z,0.00
2023-06-04T02:08:53.107Z,0.00
2023-06-04T02:09:22.806Z,0.00
2023-06-04T02:09:55.000Z,0.00
2023-06-04T02:10:29.220Z,0.00
2023-06-04T02:10:51.939Z,0.00
2023-06-04T02:11:14.285Z,0.00
2023-06-04T02:11:49.134Z,0.00
2023-06-04T02:12:21.247Z,0.00
2023-06-04T02:12:56.682Z,0.00
2023-06-04T02:13:25.121Z,0.00
2023-06-04T02:13:57.368Z,0.00
2023-06-04T02:14:29.208Z,0.00
2023-06-04T02:14:52.176Z,0.00
2023-06-04T02:15:15.216Z,0.00
2023-06-04T02:15:50.211Z,0.00
2023-06-04T02:16:22.529Z,0.00
2023-06-04T02:16:56.325Z,0.00
2023-06-04T02:17:25.214Z,0.00
2023-06-04T02:17:55.059Z,0.00
2023-06-04T02:18:29.802Z,0.00
2023-06-04T02:18:52.127Z,0.00
2023-06-04T02:19:14.764Z,0.00
2023-06-04T02:19:49.485Z,0.00
2023-06-04T02:20:21.238Z,0.00
2023-06-04T02:20:53.104Z,0.00
2023-06-04T02:21:22.499Z,0.00
2023-06-04T02:21:54.312Z,0.00
2023-06-04T02:22:29.311Z,0.00
2023-06-04T02:22:51.933Z,0.00
2023-06-04T02:23:14.249Z,0.00
2023-06-04T02:23:50.390Z,0.00
2023-06-04T02:24:24.970Z,0.00
2023-06-04T02:24:47.488Z,0.00
2023-06-04T02:25:22.472Z,0.00
2023-06-04T02:25:54.173Z,0.00
2023-06-04T02:26:29.117Z,0.00
2023-06-04T02:26:51.833Z,0.00
2023-06-04T02:27:19.597Z,0.00
2023-06-04T02:27:49.263Z,0.00
2023-06-04T02:28:23.837Z,0.00
2023-06-04T02:28:53.247Z,0.00
2023-06-04T02:29:19.430Z,0.00
2023-06-04T02:29:54.184Z,0.00
2023-06-04T02:30:29.419Z,0.00
2023-06-04T02:30:51.913Z,0.00
2023-06-04T02:31:14.424Z,0.00
2023-06-04T02:31:49.089Z,0.00
2023-06-04T02:32:21.391Z,0.00
2023-06-04T02:32:53.907Z,0.00
2023-06-04T02:33:25.599Z,0.00
2023-06-04T02:33:48.280Z,0.00
2023-06-04T02:34:11.388Z,0.00
2023-06-04T02:34:45.345Z,0.00
2023-06-04T02:35:17.083Z,0.00
2023-06-04T02:35:50.071Z,0.00
2023-06-04T02:36:21.660Z,0.00
2023-06-04T02:36:53.277Z,0.00
2023-06-04T02:37:23.441Z,0.00
2023-06-04T02:37:54.096Z,0.00
2023-06-04T02:38:29.130Z,0.00
2023-06-04T02:38:51.747Z,0.00
2023-06-04T02:39:14.231Z,0.00
2023-06-04T02:39:49.069Z,0.00
2023-06-04T02:40:21.274Z,0.00
2023-06-04T02:40:53.106Z,0.00
2023-06-04T02:41:22.640Z,0.00
2023-06-04T02:41:54.295Z,0.00
2023-06-04T02:42:30.228Z,0.00
2023-06-04T02:42:52.548Z,0.00
2023-06-04T02:43:15.157Z,0.00
2023-06-04T02:43:49.333Z,0.00
2023-06-04T02:44:21.371Z,0.00
2023-06-04T02:44:53.804Z,0.00
2023-06-04T02:45:25.581Z,0.00
2023-06-04T02:45:48.278Z,0.00
2023-06-04T02:46:10.849Z,0.00
2023-06-04T02:46:45.028Z,0.00
2023-06-04T02:47:17.400Z,0.00
2023-06-04T02:47:49.447Z,0.00
2023-06-04T02:48:21.503Z,0.00
2023-06-04T02:48:53.118Z,0.00
2023-06-04T02:49:22.580Z,0.00
2023-06-04T02:49:54.133Z,0.00
2023-06-04T02:50:29.605Z,0.00
2023-06-04T02:50:51.911Z,0.00
2023-06-04T02:51:14.747Z,0.00
2023-06-04T02:51:50.273Z,0.00
2023-06-04T02:52:21.768Z,0.00
2023-06-04T02:52:53.200Z,0.00
2023-06-04T02:53:22.396Z,0.00
2023-06-04T02:53:56.570Z,0.00
2023-06-04T02:54:29.230Z,0.00
2023-06-04T02:54:51.871Z,0.00
2023-06-04T02:55:15.091Z,0.00
2023-06-04T02:55:49.667Z,0.00
2023-06-04T02:56:24.084Z,0.00
2023-06-04T02:56:53.632Z,0.00
2023-06-04T02:57:23.255Z,0.00
2023-06-04T02:57:54.373Z,0.00
2023-06-04T02:58:30.684Z,0.00
2023-06-04T02:58:53.020Z,0.00
2023-06-04T02:59:15.862Z,0.00
2023-06-04T02:59:50.476Z,0.00
2023-06-04T03:00:27.916Z,0.00
2023-06-04T03:00:50.223Z,0.00
2023-06-04T03:01:25.219Z,0.00
2023-06-04T03:01:54.326Z,0.00
2023-06-04T03:02:29.545Z,0.00
2023-06-04T03:02:52.966Z,0.00
2023-06-04T03:03:15.352Z,0.00
2023-06-04T03:03:49.056Z,0.36
2023-06-04T03:04:21.006Z,0.36
2023-06-04T03:04:48.105Z,0.00
2023-06-04T03:05:23.061Z,0.00
2023-06-04T03:05:54.885Z,0.00
2023-06-04T03:06:29.227Z,0.00
2023-06-04T03:06:54.356Z,0.36
2023-06-04T03:07:14.757Z,0.00
2023-06-04T03:07:49.737Z,0.36
2023-06-04T03:08:20.992Z,0.36
2023-06-04T03:08:53.662Z,0.36
2023-06-04T03:09:26.104Z,0.36
2023-06-04T03:09:49.017Z,0.36
2023-06-04T03:10:11.253Z,0.85
2023-06-04T03:10:45.698Z,0.36
2023-06-04T03:11:17.106Z,0.36
2023-06-04T03:11:49.213Z,0.36
2023-06-04T03:12:21.086Z,1.22
2023-06-04T03:12:54.661Z,0.85
2023-06-04T03:13:24.095Z,1.22
2023-06-04T03:13:54.856Z,1.22
2023-06-04T03:14:29.098Z,1.22
2023-06-04T03:14:51.792Z,2.57
2023-06-04T03:15:14.085Z,1.22
2023-06-04T03:15:49.739Z,2.08
2023-06-04T03:16:21.627Z,2.57
2023-06-04T03:16:53.349Z,2.08
2023-06-04T03:17:23.041Z,2.57
2023-06-04T03:17:54.284Z,2.94
2023-06-04T03:18:29.605Z,2.57
2023-06-04T03:18:52.217Z,2.94
2023-06-04T03:19:14.635Z,3.43
2023-06-04T03:19:49.330Z,3.43
2023-06-04T03:20:21.325Z,3.43
2023-06-04T03:20:53.552Z,3.79
2023-06-04T03:21:25.828Z,3.79
2023-06-04T03:21:48.688Z,4.28
2023-06-04T03:22:12.675Z,4.28
2023-06-04T03:22:45.512Z,5.14
2023-06-04T03:23:17.391Z,4.77
2023-06-04T03:23:49.274Z,5.14
2023-06-04T03:24:23.858Z,5.14
2023-06-04T03:24:53.232Z,4.77
2023-06-04T03:25:22.962Z,5.14
2023-06-04T03:25:54.550Z,5.99
2023-06-04T03:26:30.006Z,5.63
2023-06-04T03:26:52.595Z,5.99
2023-06-04T03:27:16.029Z,5.99
2023-06-04T03:27:49.296Z,5.99
2023-06-04T03:28:22.172Z,6.48
2023-06-04T03:28:53.722Z,7.34
2023-06-04T03:29:25.586Z,6.85
2023-06-04T03:29:48.488Z,6.85
2023-06-04T03:30:11.667Z,7.70
2023-06-04T03:30:47.115Z,8.19
2023-06-04T03:31:18.271Z,7.70
2023-06-04T03:31:49.996Z,8.19
2023-06-04T03:32:21.412Z,8.19
2023-06-04T03:32:53.579Z,8.19
2023-06-04T03:33:25.401Z,8.56
2023-06-04T03:33:48.195Z,9.05
2023-06-04T03:34:10.453Z,9.05
2023-06-04T03:34:47.030Z,9.05
2023-06-04T03:35:18.772Z,9.54
2023-06-04T03:35:49.851Z,9.54
2023-06-04T03:36:21.212Z,8.56
2023-06-04T03:36:53.289Z,10.77
2023-06-04T03:37:22.463Z,9.91
2023-06-04T03:37:54.158Z,10.39
2023-06-04T03:38:29.225Z,10.39
2023-06-04T03:38:51.823Z,10.77
2023-06-04T03:39:14.153Z,10.77
2023-06-04T03:39:49.985Z,11.25
2023-06-04T03:40:21.691Z,11.62
2023-06-04T03:40:53.269Z,11.62
2023-06-04T03:41:22.731Z,11.62
2023-06-04T03:41:54.205Z,11.62
2023-06-04T03:42:29.702Z,12.97
2023-06-04T03:42:52.286Z,12.48
2023-06-04T03:43:14.509Z,12.97
2023-06-04T03:43:49.390Z,13.33
2023-06-04T03:44:21.130Z,14.31
2023-06-04T03:44:54.037Z,14.31
2023-06-04T03:45:25.329Z,14.31
2023-06-04T03:45:48.805Z,14.31
2023-06-04T03:46:10.394Z,14.31
2023-06-04T03:46:45.580Z,15.17
2023-06-04T03:47:17.478Z,15.17
2023-06-04T03:47:49.337Z,15.53
2023-06-04T03:48:21.532Z,15.53
2023-06-04T03:48:53.128Z,16.39
2023-06-04T03:49:22.648Z,17.25
2023-06-04T03:49:54.757Z,17.73
2023-06-04T03:50:30.044Z,18.11
2023-06-04T03:50:52.632Z,18.11
2023-06-04T03:51:14.960Z,18.60
2023-06-04T03:51:50.446Z,19.45
2023-06-04T03:52:21.177Z,19.45
2023-06-04T03:52:53.297Z,19.45
2023-06-04T03:53:22.807Z,19.08
2023-06-04T03:53:54.825Z,18.60
2023-06-04T03:54:29.410Z,19.94
2023-06-04T03:54:51.797Z,18.60
2023-06-04T03:55:14.981Z,19.45
2023-06-04T03:55:51.400Z,19.94
2023-06-04T03:56:21.641Z,20.80
2023-06-04T03:56:53.735Z,20.31
2023-06-04T03:57:25.826Z,20.31
2023-06-04T03:57:51.083Z,20.80
2023-06-04T03:58:10.973Z,21.16
2023-06-04T03:58:45.788Z,21.65
2023-06-04T03:59:18.509Z,22.51
2023-06-04T03:59:51.700Z,22.02
2023-06-04T04:00:28.727Z,22.51
2023-06-04T04:00:51.929Z,22.51
2023-06-04T04:01:23.355Z,22.02
2023-06-04T04:01:55.120Z,22.87
2023-06-04T04:02:29.838Z,22.87
2023-06-04T04:02:53.527Z,23.85
2023-06-04T04:03:15.107Z,22.87
2023-06-04T04:03:54.128Z,24.71
2023-06-04T04:04:21.756Z,25.07
2023-06-04T04:04:54.001Z,26.42
2023-06-04T04:05:25.541Z,28.14
2023-06-04T04:05:48.944Z,28.14
2023-06-04T04:06:10.694Z,27.65
2023-06-04T04:06:47.764Z,28.14
2023-06-04T04:07:17.378Z,29.48
2023-06-04T04:07:49.260Z,29.48
2023-06-04T04:08:21.084Z,30.34
2023-06-04T04:08:54.281Z,30.34
2023-06-04T04:09:22.683Z,30.34
2023-06-04T04:09:54.727Z,30.70
2023-06-04T04:10:29.600Z,31.19
2023-06-04T04:10:54.901Z,31.56
2023-06-04T04:11:14.561Z,32.05
2023-06-04T04:11:50.280Z,32.90
2023-06-04T04:12:21.558Z,32.42
2023-06-04T04:12:55.656Z,33.76
2023-06-04T04:13:22.948Z,33.39
2023-06-04T04:13:55.610Z,33.76
2023-06-04T04:14:29.138Z,34.25
2023-06-04T04:14:55.669Z,34.62
2023-06-04T04:15:14.675Z,35.11
2023-06-04T04:15:49.048Z,34.62
2023-06-04T04:16:21.164Z,35.11
2023-06-04T04:16:55.251Z,35.97
2023-06-04T04:17:26.497Z,35.48
2023-06-04T04:17:56.608Z,36.82
2023-06-04T04:18:29.259Z,37.19
2023-06-04T04:18:57.109Z,37.19
2023-06-04T04:19:33.172Z,38.17
2023-06-04T04:19:56.356Z,38.17
2023-06-04T04:20:19.094Z,39.02
2023-06-04T04:20:55.685Z,39.88
2023-06-04T04:21:26.339Z,39.88
2023-06-04T04:21:49.058Z,40.24
2023-06-04T04:22:11.725Z,40.24
2023-06-04T04:22:45.420Z,40.73
2023-06-04T04:23:18.265Z,41.10
2023-06-04T04:23:49.276Z,41.10
2023-06-04T04:24:21.413Z,41.59
2023-06-04T04:24:56.612Z,41.96
2023-06-04T04:25:23.886Z,41.96
2023-06-04T04:25:56.825Z,42.94
2023-06-04T04:26:29.389Z,42.94
2023-06-04T04:26:52.088Z,43.31
2023-06-04T04:27:14.420Z,43.80
2023-06-04T04:27:49.218Z,44.16
2023-06-04T04:28:21.040Z,45.02
2023-06-04T04:28:53.192Z,45.02
2023-06-04T04:29:22.734Z,45.87
2023-06-04T04:29:57.227Z,45.51
2023-06-04T04:30:31.455Z,45.51
2023-06-04T04:30:53.938Z,45.87
2023-06-04T04:31:16.495Z,46.36
2023-06-04T04:31:49.792Z,46.36
2023-06-04T04:32:21.250Z,45.87
2023-06-04T04:32:54.080Z,47.22
2023-06-04T04:33:25.764Z,47.71
2023-06-04T04:33:48.616Z,47.22
2023-06-04T04:34:11.272Z,47.71
2023-06-04T04:34:45.181Z,48.56
2023-06-04T04:35:17.198Z,48.07
2023-06-04T04:35:50.144Z,48.93
2023-06-04T04:36:24.495Z,49.42
2023-06-04T04:36:53.400Z,49.42
2023-06-04T04:37:22.611Z,50.65
2023-06-04T04:37:54.269Z,49.79
2023-06-04T04:38:29.021Z,50.65
2023-06-04T04:38:51.895Z,49.42
2023-06-04T04:39:14.420Z,49.42
2023-06-04T04:39:49.106Z,48.93
2023-06-04T04:40:21.320Z,50.28
2023-06-04T04:40:53.238Z,50.65
2023-06-04T04:41:23.564Z,51.50
2023-06-04T04:41:54.183Z,52.85
2023-06-04T04:42:29.207Z,54.56
2023-06-04T04:42:51.757Z,56.27
2023-06-04T04:43:14.122Z,58.48
2023-06-04T04:43:50.259Z,59.82
2023-06-04T04:44:21.182Z,61.53
2023-06-04T04:44:53.730Z,62.39
2023-06-04T04:45:22.865Z,63.24
2023-06-04T04:45:54.315Z,63.24
2023-06-04T04:46:29.694Z,60.19
2023-06-04T04:46:52.331Z,58.97
2023-06-04T04:47:14.623Z,55.90
2023-06-04T04:47:49.118Z,52.85
2023-06-04T04:48:21.446Z,51.50
2023-06-04T04:48:53.012Z,52.48
2023-06-04T04:49:23.553Z,53.70
2023-06-04T04:49:54.161Z,54.19
2023-06-04T04:50:31.184Z,55.41
2023-06-04T04:50:54.002Z,55.05
2023-06-04T04:51:16.247Z,56.27
2023-06-04T04:51:50.728Z,56.76
2023-06-04T04:52:21.146Z,57.62
2023-06-04T04:52:53.454Z,59.33
2023-06-04T04:53:22.591Z,60.19
2023-06-04T04:53:54.770Z,60.19
2023-06-04T04:54:29.212Z,57.62
2023-06-04T04:54:51.820Z,56.76
2023-06-04T04:55:15.363Z,53.70
2023-06-04T04:55:49.159Z,50.65
2023-06-04T04:56:21.230Z,50.65
2023-06-04T04:57:05.243Z,51.99
2023-06-04T04:57:26.490Z,52.85
2023-06-04T04:57:49.374Z,53.70
2023-06-04T04:58:11.568Z,54.19
2023-06-04T04:58:45.073Z,55.05
2023-06-04T04:59:17.204Z,56.27
2023-06-04T04:59:49.274Z,58.11
2023-06-04T05:00:20.954Z,57.62
2023-06-04T05:00:54.228Z,58.97
2023-06-04T05:01:25.241Z,61.17
2023-06-04T05:02:04.563Z,62.02
2023-06-04T05:02:26.058Z,61.53
2023-06-04T05:02:49.272Z,59.33
2023-06-04T05:03:11.724Z,55.90
2023-06-04T05:03:49.421Z,51.99
2023-06-04T05:04:21.599Z,51.99
2023-06-04T05:04:58.812Z,52.85
2023-06-04T05:05:21.660Z,52.85
2023-06-04T05:05:54.748Z,53.34
2023-06-04T05:06:29.479Z,54.56
2023-06-04T05:06:53.656Z,54.56
2023-06-04T05:07:14.899Z,55.90
2023-06-04T05:07:49.389Z,57.62
2023-06-04T05:08:22.433Z,58.97
2023-06-04T05:08:55.937Z,59.82
2023-06-04T05:09:25.664Z,61.17
2023-06-04T05:09:48.073Z,62.39
2023-06-04T05:10:13.085Z,62.39
2023-06-04T05:10:46.335Z,61.53
2023-06-04T05:11:17.361Z,58.11
2023-06-04T05:11:49.889Z,54.56
2023-06-04T05:12:24.279Z,53.70
2023-06-04T05:12:46.821Z,55.05
2023-06-04T05:13:22.734Z,55.41
2023-06-04T05:13:54.432Z,55.90
2023-06-04T05:14:29.098Z,56.27
2023-06-04T05:14:52.281Z,56.76
2023-06-04T05:15:16.489Z,58.11
2023-06-04T05:15:49.185Z,58.48
2023-06-04T05:16:21.730Z,59.33
2023-06-04T05:16:53.251Z,61.17
2023-06-04T05:17:22.656Z,62.02
2023-06-04T05:17:55.833Z,62.88
2023-06-04T05:18:29.330Z,64.59
2023-06-04T05:18:53.296Z,64.96
2023-06-04T05:19:15.712Z,62.39
2023-06-04T05:19:49.350Z,58.48
2023-06-04T05:20:20.778Z,57.25
2023-06-04T05:20:53.690Z,58.11
2023-06-04T05:21:26.327Z,58.11
2023-06-04T05:21:49.243Z,58.48
2023-06-04T05:22:13.213Z,58.97
2023-06-04T05:22:45.481Z,59.82
2023-06-04T05:23:18.024Z,61.17
2023-06-04T05:23:49.835Z,61.53
2023-06-04T05:24:21.116Z,64.10
2023-06-04T05:24:58.919Z,66.31
2023-06-04T05:25:24.104Z,67.65
2023-06-04T05:25:54.704Z,69.36
2023-06-04T05:26:29.306Z,72.42
2023-06-04T05:26:51.778Z,71.93
2023-06-04T05:27:14.449Z,68.02
2023-06-04T05:27:49.247Z,62.39
2023-06-04T05:28:21.137Z,60.68
2023-06-04T05:28:53.283Z,60.19
2023-06-04T05:29:22.761Z,62.02
2023-06-04T05:29:54.269Z,62.88
2023-06-04T05:30:29.352Z,64.96
2023-06-04T05:30:51.845Z,65.45
2023-06-04T05:31:14.360Z,67.65
2023-06-04T05:31:49.162Z,69.73
2023-06-04T05:32:21.034Z,71.93
2023-06-04T05:32:54.341Z,74.50
2023-06-04T05:33:26.069Z,77.19
2023-06-04T05:33:48.767Z,79.27
2023-06-04T05:34:11.949Z,82.82
2023-06-04T05:34:45.151Z,81.97
2023-06-04T05:35:17.170Z,76.70
2023-06-04T05:35:48.970Z,71.56
2023-06-04T05:36:21.276Z,68.87
2023-06-04T05:36:53.105Z,71.07
2023-06-04T05:37:22.709Z,73.65
2023-06-04T05:37:54.358Z,76.34
2023-06-04T05:38:29.407Z,80.25
2023-06-04T05:38:52.165Z,81.48
2023-06-04T05:39:14.662Z,85.39
2023-06-04T05:39:49.031Z,89.31
2023-06-04T05:40:20.998Z,94.07
2023-06-04T05:40:53.053Z,98.36
2023-06-04T05:41:22.572Z,101.90
2023-06-04T05:41:54.335Z,105.82
2023-06-04T05:42:29.143Z,107.53
2023-06-04T05:42:51.876Z,100.56
2023-06-04T05:43:14.482Z,90.16
2023-06-04T05:43:49.179Z,82.82
2023-06-04T05:44:22.571Z,77.19
2023-06-04T05:44:53.267Z,75.48
2023-06-04T05:45:23.971Z,77.19
2023-06-04T05:45:54.214Z,81.97
2023-06-04T05:46:29.426Z,121.36
2023-06-04T05:46:52.515Z,141.78
2023-06-04T05:47:14.412Z,176.04
2023-06-04T05:47:51.577Z,201.24
2023-06-04T05:48:21.256Z,206.01
2023-06-04T05:48:53.331Z,206.38
2023-06-04T05:49:22.759Z,206.38
2023-06-04T05:49:54.447Z,206.38
2023-06-04T05:50:30.079Z,207.36
2023-06-04T05:50:52.613Z,208.58
2023-06-04T05:51:15.270Z,209.44
2023-06-04T05:51:49.037Z,211.15
2023-06-04T05:52:22.427Z,213.35
2023-06-04T05:52:53.656Z,215.92
2023-06-04T05:53:25.254Z,218.61
2023-06-04T05:53:48.433Z,219.83
2023-06-04T05:54:12.846Z,223.39
2023-06-04T05:54:45.920Z,225.95
2023-06-04T05:55:18.127Z,228.52
2023-06-04T05:55:49.092Z,232.07
2023-06-04T05:56:21.164Z,237.21
2023-06-04T05:56:53.829Z,239.41
2023-06-04T05:57:26.253Z,241.12
2023-06-04T05:57:49.041Z,243.32
2023-06-04T05:58:14.847Z,244.18
2023-06-04T05:58:45.574Z,246.39
2023-06-04T05:59:18.145Z,247.24
2023-06-04T05:59:49.395Z,248.95
2023-06-04T06:00:21.491Z,248.95
2023-06-04T06:00:53.245Z,249.44
2023-06-04T06:01:28.213Z,249.81
2023-06-04T06:01:50.215Z,249.44
2023-06-04T06:02:14.686Z,248.10
2023-06-04T06:02:46.014Z,247.61
2023-06-04T06:03:17.501Z,247.61
2023-06-04T06:03:49.474Z,247.24
2023-06-04T06:04:21.188Z,245.90
2023-06-04T06:04:53.237Z,245.90
2023-06-04T06:05:24.355Z,244.67
2023-06-04T06:05:55.349Z,242.83
2023-06-04T06:06:31.063Z,240.27
2023-06-04T06:06:52.211Z,238.92
2023-06-04T06:07:15.201Z,237.21
2023-06-04T06:07:49.579Z,234.64
2023-06-04T06:08:21.359Z,234.64
2023-06-04T06:08:53.906Z,236.35
2023-06-04T06:09:25.419Z,241.61
2023-06-04T06:09:48.248Z,241.98
2023-06-04T06:10:23.536Z,248.95
2023-06-04T06:10:40.052Z,255.44
2023-06-04T06:11:05.486Z,263.27
2023-06-04T06:11:27.350Z,263.76
2023-06-04T06:11:57.048Z,266.32
2023-06-04T06:12:21.357Z,271.46
2023-06-04T06:12:53.912Z,278.07
2023-06-04T06:13:27.464Z,281.49
2023-06-04T06:13:50.208Z,284.06
2023-06-04T06:14:16.145Z,287.61
2023-06-04T06:14:45.292Z,290.18
2023-06-04T06:15:17.794Z,291.03
2023-06-04T06:15:50.039Z,293.61
2023-06-04T06:16:21.248Z,294.46
2023-06-04T06:16:53.817Z,298.37
2023-06-04T06:17:22.878Z,301.44
2023-06-04T06:17:55.382Z,303.15
2023-06-04T06:18:29.251Z,309.63
2023-06-04T06:18:52.142Z,311.47
2023-06-04T06:19:17.458Z,314.89
2023-06-04T06:19:49.511Z,317.46
2023-06-04T06:20:28.420Z,320.52
2023-06-04T06:20:48.507Z,323.95
2023-06-04T06:21:22.823Z,324.44
2023-06-04T06:21:54.680Z,326.64
2023-06-04T06:22:29.457Z,330.06
2023-06-04T06:22:52.629Z,331.78
2023-06-04T06:23:18.009Z,333.49
2023-06-04T06:23:49.435Z,337.89
2023-06-04T06:24:21.194Z,343.03
2023-06-04T06:24:53.103Z,344.01
2023-06-04T06:25:28.569Z,346.95
2023-06-04T06:25:54.560Z,349.15
2023-06-04T06:26:29.156Z,349.64
2023-06-04T06:26:52.204Z,350.49
2023-06-04T06:27:14.479Z,350.49
2023-06-04T06:27:49.142Z,352.20
2023-06-04T06:28:21.091Z,354.40
2023-06-04T06:28:53.161Z,355.26
2023-06-04T06:29:22.662Z,357.83
2023-06-04T06:29:54.356Z,357.83
2023-06-04T06:30:29.249Z,360.03
2023-06-04T06:30:53.628Z,361.74
2023-06-04T06:31:15.142Z,360.89
2023-06-04T06:31:49.204Z,362.60
2023-06-04T06:32:21.420Z,364.32